Time;durP1;ratioP1;P1;durP2;ratioP2;P2;SDS_P1;SDS_P2;PMS_P1;PMS_P2;Temp;Humidity;BMP_temperature;BMP_pressure;BME280_temperature;BME280_humidity;BME280_pressure;Samples;Min_cycle;Max_cycle;Signal;HPM_P1;HPM_P2
2021/06/08 00:01:48;;;;;;;2.70;1.00;;;16.00;85.20;;;;;;4786144;29;20058;-86
2021/06/08 00:04:16;;;;;;;1.58;0.98;;;16.00;85.50;;;;;;4803378;29;20813;-85
2021/06/08 00:06:42;;;;;;;3.03;0.80;;;15.90;85.60;;;;;;4769661;29;20062;-85
2021/06/08 00:09:09;;;;;;;2.30;1.10;;;15.90;85.80;;;;;;4767297;29;20499;-85
2021/06/08 00:11:35;;;;;;;3.97;1.38;;;15.80;86.00;;;;;;4784039;29;20039;-84
2021/06/08 00:14:02;;;;;;;3.10;1.60;;;15.80;86.20;;;;;;4800696;29;20050;-85
2021/06/08 00:16:29;;;;;;;3.10;1.85;;;15.80;87.10;;;;;;4770772;29;20471;-85
2021/06/08 00:18:56;;;;;;;2.90;1.50;;;15.70;86.70;;;;;;4766887;29;20575;-85
2021/06/08 00:21:22;;;;;;;3.22;1.95;;;15.70;86.90;;;;;;4783212;29;20074;-85
2021/06/08 00:23:49;;;;;;;5.47;2.05;;;15.70;87.10;;;;;;4765385;29;20049;-84
2021/06/08 00:26:15;;;;;;;2.30;1.92;;;15.60;87.50;;;;;;4786204;29;20046;-85
2021/06/08 00:28:42;;;;;;;3.67;2.38;;;15.60;87.70;;;;;;4799446;29;20482;-85
2021/06/08 00:31:08;;;;;;;4.85;3.58;;;15.60;88.10;;;;;;4785181;29;20054;-86
2021/06/08 00:33:35;;;;;;;4.72;3.50;;;15.60;88.60;;;;;;4789283;29;20058;-85
2021/06/08 00:36:04;;;;;;;5.97;2.70;;;15.50;88.90;;;;;;4800020;29;20051;-86
2021/06/08 00:38:31;;;;;;;4.80;2.63;;;15.50;88.70;;;;;;4773537;29;20132;-86
2021/06/08 00:41:00;;;;;;;3.25;2.60;;;15.50;88.70;;;;;;4791129;29;20065;-81
2021/06/08 00:43:27;;;;;;;3.55;3.08;;;15.50;89.00;;;;;;4801538;29;20042;-86
2021/06/08 00:45:54;;;;;;;4.18;2.30;;;15.40;89.00;;;;;;4799932;29;20062;-87
2021/06/08 00:48:21;;;;;;;5.72;2.22;;;15.40;89.20;;;;;;4807723;29;20046;-86
2021/06/08 00:50:48;;;;;;;4.57;3.45;;;15.40;89.40;;;;;;4785883;29;20420;-86
2021/06/08 00:53:15;;;;;;;4.55;2.88;;;15.40;89.70;;;;;;4807106;29;20034;-86
2021/06/08 00:55:42;;;;;;;3.78;3.47;;;15.30;90.20;;;;;;4807707;29;20047;-86
2021/06/08 00:58:09;;;;;;;3.95;3.20;;;15.30;90.00;;;;;;4808321;29;20059;-83
2021/06/08 01:00:36;;;;;;;3.90;2.83;;;15.30;90.10;;;;;;4796890;29;20042;-84
2021/06/08 01:03:04;;;;;;;5.03;3.10;;;15.20;90.20;;;;;;4803364;29;20196;-83
2021/06/08 01:05:31;;;;;;;4.93;3.92;;;15.30;90.20;;;;;;4810155;29;20059;-84
2021/06/08 01:07:57;;;;;;;7.70;6.28;;;15.20;90.30;;;;;;4788588;29;20495;-84
2021/06/08 01:10:24;;;;;;;9.55;5.30;;;15.20;90.60;;;;;;4788940;29;20034;-84
2021/06/08 01:13:02;;;;;;;8.93;7.35;;;15.20;90.50;;;;;;4790676;29;20059;-84
2021/06/08 01:15:28;;;;;;;4.57;4.18;;;15.10;90.60;;;;;;4771281;29;20251;-86
2021/06/08 01:17:55;;;;;;;5.20;4.55;;;15.10;90.70;;;;;;4793135;29;20051;-84
2021/06/08 01:20:22;;;;;;;5.43;4.07;;;15.10;90.80;;;;;;4776499;29;20042;-86
2021/06/08 01:22:49;;;;;;;5.15;4.65;;;15.00;90.80;;;;;;4774627;29;20058;-85
2021/06/08 01:25:15;;;;;;;5.93;3.95;;;15.00;90.90;;;;;;4799300;29;20050;-86
2021/06/08 01:27:42;;;;;;;4.15;3.33;;;15.00;90.90;;;;;;4777615;29;20062;-86
2021/06/08 01:30:10;;;;;;;4.88;3.33;;;15.00;90.90;;;;;;4795796;29;20046;-87
2021/06/08 01:32:41;;;;;;;4.15;3.65;;;15.00;90.90;;;;;;4779879;29;20043;-86
2021/06/08 01:35:09;;;;;;;7.43;4.73;;;14.90;90.90;;;;;;4801920;29;20048;-86
2021/06/08 01:37:38;;;;;;;5.07;4.38;;;14.90;91.20;;;;;;4809715;29;20070;-86
2021/06/08 01:40:07;;;;;;;5.60;3.10;;;14.90;91.30;;;;;;4807396;29;20411;-85
2021/06/08 01:42:36;;;;;;;8.05;5.57;;;14.80;91.30;;;;;;4789428;29;20059;-87
2021/06/08 01:45:03;;;;;;;6.43;5.20;;;14.80;91.50;;;;;;4805887;29;20074;-87
2021/06/08 01:47:29;;;;;;;6.25;5.03;;;14.70;91.60;;;;;;4809059;29;20047;-86
2021/06/08 01:49:56;;;;;;;9.32;6.38;;;14.70;91.60;;;;;;4803881;29;20047;-86
2021/06/08 01:52:41;;;;;;;6.20;5.25;;;14.70;91.80;;;;;;4763241;29;20498;-86
2021/06/08 01:55:28;;;;;;;7.53;4.75;;;14.70;91.80;;;;;;4789745;29;20043;-85
2021/06/08 01:58:10;;;;;;;7.72;5.50;;;14.60;91.80;;;;;;4806569;29;20058;-87
2021/06/08 02:00:46;;;;;;;8.05;6.63;;;14.60;92.00;;;;;;4805028;29;20065;-87
2021/06/08 02:03:32;;;;;;;8.48;5.65;;;14.50;92.10;;;;;;4775471;29;20526;-86
2021/06/08 02:06:02;;;;;;;6.20;5.60;;;14.50;92.20;;;;;;4782038;29;20745;-85
2021/06/08 02:08:44;;;;;;;8.60;7.72;;;14.50;92.20;;;;;;4782358;29;20043;-87
2021/06/08 02:11:25;;;;;;;6.60;5.50;;;14.50;92.50;;;;;;4792935;29;20049;-87
2021/06/08 02:14:04;;;;;;;10.35;7.18;;;14.40;92.40;;;;;;4793635;29;20527;-87
2021/06/08 02:16:53;;;;;;;7.05;6.35;;;14.40;92.60;;;;;;4791087;29;20049;-87
2021/06/08 02:19:23;;;;;;;10.25;6.25;;;14.30;92.60;;;;;;4776569;29;20380;-86
2021/06/08 02:21:55;;;;;;;8.63;6.43;;;14.30;92.70;;;;;;4808842;29;20055;-87
2021/06/08 02:24:25;;;;;;;7.60;6.20;;;14.30;92.80;;;;;;4796702;29;20054;-86
2021/06/08 02:27:02;;;;;;;8.05;6.40;;;14.30;92.80;;;;;;4804896;29;20498;-87
2021/06/08 02:29:30;;;;;;;9.52;6.95;;;14.20;92.90;;;;;;4780039;29;20062;-87
2021/06/08 02:31:58;;;;;;;9.40;8.02;;;14.20;93.00;;;;;;4789597;29;20045;-87
2021/06/08 02:34:26;;;;;;;9.07;7.50;;;14.20;93.10;;;;;;4795601;29;20061;-88
2021/06/08 02:36:54;;;;;;;7.90;7.10;;;14.10;93.20;;;;;;4777784;29;20069;-88
2021/06/08 02:39:23;;;;;;;7.70;6.32;;;14.10;93.20;;;;;;4773861;29;20051;-87
2021/06/08 02:41:51;;;;;;;8.13;6.80;;;14.10;93.30;;;;;;4781854;29;21210;-87
2021/06/08 02:44:20;;;;;;;7.97;7.18;;;14.10;93.40;;;;;;4793704;29;20058;-87
2021/06/08 02:46:49;;;;;;;8.25;7.40;;;14.10;93.40;;;;;;4804690;29;20042;-88
2021/06/08 02:49:18;;;;;;;9.50;7.45;;;14.10;93.50;;;;;;4806892;29;20046;-87
2021/06/08 02:51:45;;;;;;;8.20;7.40;;;14.00;93.50;;;;;;4806882;29;20050;-87
2021/06/08 02:54:14;;;;;;;8.00;7.18;;;14.00;93.50;;;;;;4790637;29;20058;-87
2021/06/08 02:56:41;;;;;;;9.85;7.28;;;14.00;93.70;;;;;;4805430;29;21440;-87
2021/06/08 02:59:09;;;;;;;8.48;7.45;;;14.00;93.60;;;;;;4771402;29;20526;-88
2021/06/08 03:01:41;;;;;;;8.50;7.28;;;14.00;93.70;;;;;;4774973;29;20141;-87
2021/06/08 03:04:11;;;;;;;7.13;6.43;;;13.90;93.70;;;;;;4801310;29;20467;-88
2021/06/08 03:06:50;;;;;;;9.25;7.18;;;14.00;93.70;;;;;;4793590;29;20046;-88
2021/06/08 03:09:20;;;;;;;8.57;6.75;;;13.90;93.80;;;;;;4786632;29;20039;-87
2021/06/08 03:11:50;;;;;;;7.70;6.72;;;13.90;93.80;;;;;;4803413;29;20057;-86
2021/06/08 03:14:19;;;;;;;7.85;6.70;;;13.90;93.90;;;;;;4777297;29;20046;-87
2021/06/08 03:16:52;;;;;;;9.40;8.10;;;13.90;93.80;;;;;;4792575;29;20058;-86
2021/06/08 03:19:21;;;;;;;8.80;7.90;;;13.90;94.00;;;;;;4804692;29;20065;-87
2021/06/08 03:21:54;;;;;;;8.32;6.80;;;13.90;94.00;;;;;;4807185;29;20054;-87
2021/06/08 03:24:27;;;;;;;7.00;5.65;;;13.80;94.00;;;;;;4778259;29;20046;-87
2021/06/08 03:26:56;;;;;;;7.20;5.72;;;13.90;94.10;;;;;;4807687;29;20054;-87
2021/06/08 03:29:23;;;;;;;6.85;6.15;;;13.90;94.00;;;;;;4794008;29;20055;-88
2021/06/08 03:31:51;;;;;;;8.30;7.18;;;13.80;94.00;;;;;;4790721;29;20694;-88
2021/06/08 03:34:19;;;;;;;8.85;6.72;;;13.80;94.10;;;;;;4775352;29;20042;-88
2021/06/08 03:36:48;;;;;;;6.05;5.40;;;13.80;94.10;;;;;;4808297;29;20917;-89
2021/06/08 03:39:16;;;;;;;6.43;5.82;;;13.80;94.10;;;;;;4808192;29;20063;-88
2021/06/08 03:41:44;;;;;;;10.07;8.18;;;13.80;94.10;;;;;;4794718;29;20062;-88
2021/06/08 03:44:15;;;;;;;8.95;7.72;;;13.90;94.30;;;;;;4775307;29;20047;-89
2021/06/08 03:46:44;;;;;;;7.38;6.68;;;13.80;94.30;;;;;;4789438;29;20042;-88
2021/06/08 03:49:13;;;;;;;7.32;6.38;;;13.90;94.20;;;;;;4774134;29;20038;-88
2021/06/08 03:51:40;;;;;;;9.77;8.88;;;13.90;94.20;;;;;;4773510;29;20054;-88
2021/06/08 03:54:10;;;;;;;9.13;7.53;;;13.90;94.30;;;;;;4777845;29;20827;-87
2021/06/08 03:56:41;;;;;;;10.27;9.27;;;13.90;94.30;;;;;;4776214;29;20077;-88
2021/06/08 03:59:10;;;;;;;8.25;7.45;;;13.90;94.30;;;;;;4779470;29;20395;-88
2021/06/08 04:01:38;;;;;;;11.27;8.52;;;13.90;94.30;;;;;;4790711;29;20517;-88
2021/06/08 04:04:08;;;;;;;8.88;7.00;;;13.90;94.30;;;;;;4795322;29;20047;-88
2021/06/08 04:06:35;;;;;;;9.05;7.32;;;14.00;94.30;;;;;;4792493;29;20054;-88
2021/06/08 04:09:08;;;;;;;9.02;8.15;;;14.00;94.20;;;;;;4793583;29;20535;-88
2021/06/08 04:11:40;;;;;;;9.27;7.15;;;14.00;94.30;;;;;;4804718;29;20050;-83
2021/06/08 04:14:09;;;;;;;8.60;7.13;;;14.10;94.20;;;;;;4790727;29;20046;-88
2021/06/08 04:16:36;;;;;;;8.35;7.47;;;14.20;94.10;;;;;;4786116;29;20403;-85
2021/06/08 04:19:07;;;;;;;6.55;5.95;;;14.20;94.00;;;;;;4777805;29;20062;-90
2021/06/08 04:21:34;;;;;;;8.90;7.45;;;14.30;94.00;;;;;;4783017;29;20497;-89
2021/06/08 04:24:03;;;;;;;9.02;6.45;;;14.40;94.00;;;;;;4759326;29;20551;-88
2021/06/08 04:26:31;;;;;;;8.55;6.63;;;14.50;93.90;;;;;;4774579;29;20487;-86
2021/06/08 04:28:58;;;;;;;6.82;5.60;;;14.50;93.70;;;;;;4804815;29;20050;-84
2021/06/08 04:31:26;;;;;;;7.80;6.55;;;14.60;93.70;;;;;;4777823;29;20403;-85
2021/06/08 04:33:53;;;;;;;7.25;5.40;;;14.80;93.60;;;;;;4773252;29;20046;-87
2021/06/08 04:36:20;;;;;;;6.95;5.38;;;14.90;93.40;;;;;;4764216;29;20074;-84
2021/06/08 04:38:47;;;;;;;6.70;5.32;;;15.00;93.20;;;;;;4792348;29;20043;-86
2021/06/08 04:41:14;;;;;;;5.85;5.22;;;15.10;93.00;;;;;;4796675;29;20046;-85
2021/06/08 04:43:42;;;;;;;6.03;5.43;;;15.30;92.90;;;;;;4792832;29;20375;-81
2021/06/08 04:46:14;;;;;;;9.32;5.65;;;15.40;92.70;;;;;;4794758;29;20055;-85
2021/06/08 04:48:42;;;;;;;7.07;5.07;;;15.50;92.40;;;;;;4778736;29;20072;-85
2021/06/08 04:51:09;;;;;;;5.47;4.93;;;15.60;92.20;;;;;;4812047;29;20039;-84
2021/06/08 04:53:37;;;;;;;5.00;4.28;;;15.70;92.00;;;;;;4795038;29;20050;-84
2021/06/08 04:56:05;;;;;;;7.53;5.35;;;15.80;91.80;;;;;;4776587;29;20050;-83
2021/06/08 04:58:33;;;;;;;6.78;3.80;;;15.90;91.50;;;;;;4801273;29;20047;-85
2021/06/08 05:00:59;;;;;;;6.25;4.22;;;16.10;91.30;;;;;;4773570;29;20058;-85
2021/06/08 05:03:32;;;;;;;5.65;4.18;;;16.20;90.90;;;;;;4811398;29;20055;-84
2021/06/08 05:06:01;;;;;;;5.07;2.75;;;16.40;90.80;;;;;;4791384;29;20152;-86
2021/06/08 05:08:35;;;;;;;3.65;3.03;;;16.50;90.60;;;;;;4789714;29;20927;-84
2021/06/08 05:11:19;;;;;;;3.58;2.92;;;16.60;90.40;;;;;;4805827;29;20058;-84
2021/06/08 05:13:48;;;;;;;5.70;3.40;;;16.80;90.00;;;;;;4810273;29;20462;-85
2021/06/08 05:16:16;;;;;;;6.35;3.50;;;17.00;89.80;;;;;;4785440;29;20043;-84
2021/06/08 05:18:46;;;;;;;4.15;3.30;;;17.10;89.80;;;;;;4789518;29;20130;-84
2021/06/08 05:21:16;;;;;;;4.90;2.78;;;17.30;88.70;;;;;;4792456;29;20501;-84
2021/06/08 05:23:43;;;;;;;3.13;1.85;;;17.40;87.80;;;;;;4809776;29;20790;-81
2021/06/08 05:26:11;;;;;;;3.63;1.65;;;17.50;86.80;;;;;;4808253;29;20059;-80
2021/06/08 05:28:41;;;;;;;4.03;2.10;;;17.60;86.50;;;;;;4807643;29;20043;-80
2021/06/08 05:31:09;;;;;;;2.92;1.67;;;17.70;86.00;;;;;;4805187;29;20051;-80
2021/06/08 05:33:36;;;;;;;3.25;1.30;;;17.80;85.60;;;;;;4778406;29;20054;-81
2021/06/08 05:36:03;;;;;;;5.10;2.13;;;18.00;85.10;;;;;;4793382;29;20050;-81
2021/06/08 05:38:42;;;;;;;2.85;1.80;;;18.10;84.20;;;;;;4791664;29;20062;-81
2021/06/08 05:41:11;;;;;;;2.22;1.40;;;18.20;83.60;;;;;;4806780;29;20057;-79
2021/06/08 05:43:38;;;;;;;4.70;1.30;;;18.40;83.00;;;;;;4802023;29;20066;-79
2021/06/08 05:46:05;;;;;;;2.60;1.25;;;18.60;82.60;;;;;;4806693;29;20047;-81
2021/06/08 05:48:32;;;;;;;3.50;1.42;;;18.70;81.20;;;;;;4805264;29;20046;-82
2021/06/08 05:51:02;;;;;;;2.67;1.05;;;18.70;81.00;;;;;;4790172;29;20057;-81
2021/06/08 05:53:30;;;;;;;3.63;1.35;;;18.90;81.20;;;;;;4792051;29;20035;-78
2021/06/08 05:55:57;;;;;;;2.80;1.23;;;19.00;80.70;;;;;;4791864;29;20038;-81
2021/06/08 05:58:31;;;;;;;2.72;1.02;;;19.20;80.20;;;;;;4804475;29;20436;-80
2021/06/08 06:00:59;;;;;;;2.60;1.17;;;19.40;80.00;;;;;;4803319;29;20049;-80
2021/06/08 06:03:27;;;;;;;4.18;1.70;;;19.80;79.10;;;;;;4785373;29;20058;-79
2021/06/08 06:05:58;;;;;;;3.72;1.30;;;20.10;77.80;;;;;;4804247;29;20577;-83
2021/06/08 06:08:25;;;;;;;3.45;0.60;;;20.30;76.50;;;;;;4804521;29;20089;-82
2021/06/08 06:10:53;;;;;;;1.08;0.50;;;20.50;76.50;;;;;;4813158;29;20502;-82
2021/06/08 06:13:23;;;;;;;1.42;0.40;;;20.60;75.20;;;;;;4793711;29;20046;-82
2021/06/08 06:15:51;;;;;;;1.70;0.50;;;20.70;74.80;;;;;;4805540;29;20066;-81
2021/06/08 06:18:19;;;;;;;3.10;0.40;;;20.90;73.70;;;;;;4789095;29;20054;-82
2021/06/08 06:20:47;;;;;;;2.90;0.55;;;21.10;73.40;;;;;;4808279;29;20518;-81
2021/06/08 06:23:18;;;;;;;1.48;0.60;;;21.40;72.70;;;;;;4788004;29;20049;-81
2021/06/08 06:25:46;;;;;;;2.38;0.50;;;21.60;69.70;;;;;;4806039;29;20054;-86
2021/06/08 06:28:14;;;;;;;2.30;0.40;;;21.70;69.20;;;;;;4793702;29;20398;-86
2021/06/08 06:30:42;;;;;;;1.38;0.50;;;21.80;68.90;;;;;;4788776;29;20039;-86
2021/06/08 06:33:08;;;;;;;2.53;0.50;;;21.90;68.80;;;;;;4807893;29;20034;-79
2021/06/08 06:35:35;;;;;;;1.52;0.40;;;22.00;68.70;;;;;;4806018;29;20042;-80
2021/06/08 06:38:05;;;;;;;1.83;0.45;;;22.00;68.30;;;;;;4789621;29;20065;-82
2021/06/08 06:40:34;;;;;;;3.72;0.63;;;22.00;67.40;;;;;;4795351;29;20050;-82
2021/06/08 06:43:24;;;;;;;2.22;0.45;;;21.90;67.60;;;;;;4802773;29;20407;-82
2021/06/08 06:45:52;;;;;;;2.08;0.50;;;22.00;67.50;;;;;;4799781;29;20047;-82
2021/06/08 06:48:19;;;;;;;0.70;0.40;;;22.00;67.20;;;;;;4796498;29;20039;-82
2021/06/08 06:50:47;;;;;;;1.98;0.50;;;22.00;66.70;;;;;;4792595;29;20054;-83
2021/06/08 06:53:18;;;;;;;3.35;1.20;;;22.00;66.70;;;;;;4789682;29;20353;-84
2021/06/08 06:55:49;;;;;;;2.15;0.75;;;22.10;66.40;;;;;;4808840;29;20042;-89
2021/06/08 06:58:18;;;;;;;1.35;0.40;;;22.20;66.20;;;;;;4807257;29;20042;-88
2021/06/08 07:00:45;;;;;;;1.60;0.50;;;22.30;66.20;;;;;;4788838;29;20047;-81
2021/06/08 07:03:14;;;;;;;1.30;0.60;;;22.30;65.60;;;;;;4790661;29;20054;-83
2021/06/08 07:05:44;;;;;;;6.90;6.20;;;22.40;65.80;;;;;;4803345;29;20042;-85
2021/06/08 07:08:14;;;;;;;2.35;1.55;;;22.50;65.80;;;;;;4801176;29;20054;-84
2021/06/08 07:10:40;;;;;;;3.00;0.60;;;22.50;65.50;;;;;;4792630;29;20054;-85
2021/06/08 07:13:08;;;;;;;1.35;0.70;;;22.60;64.60;;;;;;4801255;29;20506;-84
2021/06/08 07:15:35;;;;;;;1.45;0.50;;;22.50;64.50;;;;;;4770666;29;20051;-84
2021/06/08 07:18:03;;;;;;;1.65;0.57;;;22.60;64.90;;;;;;4799131;29;20062;-83
2021/06/08 07:20:31;;;;;;;1.23;0.50;;;22.70;64.70;;;;;;4802559;29;20253;-84
2021/06/08 07:22:59;;;;;;;1.95;0.63;;;22.90;64.60;;;;;;4807339;29;20050;-84
2021/06/08 07:25:26;;;;;;;1.20;0.60;;;23.00;64.30;;;;;;4800399;29;20526;-84
2021/06/08 07:27:54;;;;;;;2.25;1.00;;;23.00;63.90;;;;;;4805721;29;20055;-83
2021/06/08 07:30:22;;;;;;;2.05;0.80;;;23.10;63.70;;;;;;4805522;29;20057;-84
2021/06/08 07:33:27;;;;;;;1.92;0.70;;;23.10;63.20;;;;;;4772003;29;20046;-83
2021/06/08 07:36:08;;;;;;;1.98;0.90;;;23.20;63.20;;;;;;4805974;29;20038;-86
2021/06/08 07:38:50;;;;;;;1.95;0.93;;;23.20;63.60;;;;;;4803990;29;20742;-88
2021/06/08 07:42:04;;;;;;;1.20;0.70;;;23.20;63.50;;;;;;4792535;29;20038;-83
2021/06/08 07:44:35;;;;;;;2.65;0.98;;;23.30;63.90;;;;;;4801628;29;20074;-88
2021/06/08 07:47:06;;;;;;;5.13;3.30;;;23.50;63.00;;;;;;4789683;29;20042;-89
2021/06/08 07:49:35;;;;;;;4.50;2.42;;;23.60;63.30;;;;;;4786656;29;20038;-85
2021/06/08 07:52:05;;;;;;;3.20;1.42;;;23.70;63.40;;;;;;4790979;29;20050;-89
2021/06/08 07:54:32;;;;;;;3.97;2.42;;;23.90;63.10;;;;;;4788583;29;20039;-89
2021/06/08 07:56:59;;;;;;;3.00;1.48;;;24.00;62.50;;;;;;4772862;29;20055;-87
2021/06/08 07:59:26;;;;;;;1.80;1.02;;;24.10;62.50;;;;;;4771860;29;20054;-86
2021/06/08 08:01:53;;;;;;;3.30;1.15;;;24.20;62.30;;;;;;4810712;29;20038;-87
2021/06/08 08:04:22;;;;;;;2.03;0.95;;;24.30;62.10;;;;;;4813108;29;20057;-88
2021/06/08 08:06:51;;;;;;;3.90;1.20;;;24.40;61.80;;;;;;4793671;29;20046;-88
2021/06/08 08:09:19;;;;;;;2.10;1.30;;;24.50;61.90;;;;;;4775294;29;20696;-88
2021/06/08 08:11:52;;;;;;;2.03;0.93;;;24.60;61.90;;;;;;4779803;29;20046;-90
2021/06/08 08:14:23;;;;;;;2.60;1.33;;;24.80;61.70;;;;;;4806666;29;20039;-86
2021/06/08 08:16:50;;;;;;;2.38;1.20;;;24.90;61.50;;;;;;4811156;29;20506;-88
2021/06/08 08:19:21;;;;;;;3.30;1.38;;;25.00;61.30;;;;;;4770114;29;20042;-84
2021/06/08 08:21:49;;;;;;;3.25;1.95;;;25.10;60.70;;;;;;4769023;29;20058;-86
2021/06/08 08:24:16;;;;;;;2.58;1.30;;;25.10;60.70;;;;;;4778913;29;20067;-86
2021/06/08 08:26:43;;;;;;;1.75;1.10;;;25.00;60.30;;;;;;4776217;29;20057;-94
2021/06/08 08:29:10;;;;;;;2.20;1.70;;;25.10;60.30;;;;;;4772142;29;20038;-88
2021/06/08 08:31:37;;;;;;;2.53;1.08;;;25.10;60.20;;;;;;4807494;29;20050;-88
2021/06/08 08:34:05;;;;;;;3.00;1.23;;;25.20;60.40;;;;;;4803855;29;20047;-84
2021/06/08 08:36:37;;;;;;;2.80;1.50;;;25.30;60.00;;;;;;4804011;29;20059;-86
2021/06/08 08:39:09;;;;;;;2.15;1.42;;;25.40;60.10;;;;;;4804723;29;20059;-86
2021/06/08 08:41:37;;;;;;;7.80;1.75;;;25.50;60.20;;;;;;4801814;29;20062;-87
2021/06/08 08:44:06;;;;;;;2.72;1.50;;;25.60;59.30;;;;;;4808231;29;20406;-87
2021/06/08 08:46:33;;;;;;;1.52;1.05;;;25.60;58.80;;;;;;4787595;29;20043;-87
2021/06/08 08:49:00;;;;;;;1.90;1.23;;;25.60;59.30;;;;;;4801999;29;20051;-87
2021/06/08 08:51:28;;;;;;;2.78;1.40;;;25.80;59.70;;;;;;4771477;29;20047;-88
2021/06/08 08:53:58;;;;;;;2.42;1.58;;;26.00;59.20;;;;;;4788859;29;20034;-89
2021/06/08 08:56:34;;;;;;;3.50;1.60;;;26.10;58.50;;;;;;4803423;29;20475;-88
2021/06/08 08:59:09;;;;;;;3.22;1.45;;;26.10;57.70;;;;;;4804584;29;20042;-82
2021/06/08 09:01:38;;;;;;;1.58;1.17;;;26.10;57.80;;;;;;4803376;29;20578;-83
2021/06/08 09:04:06;;;;;;;1.40;0.73;;;26.10;58.10;;;;;;4803783;29;20053;-89
2021/06/08 09:06:33;;;;;;;1.83;1.20;;;26.10;58.50;;;;;;4773171;29;20057;-90
2021/06/08 09:09:05;;;;;;;2.28;1.27;;;26.20;58.80;;;;;;4774705;29;20065;-89
2021/06/08 09:11:36;;;;;;;;;;;26.40;58.60;;;;;;4783941;29;20069;-89
2021/06/08 09:14:03;;;;;;;2.72;1.73;;;26.50;58.20;;;;;;4779366;29;19932;-89
2021/06/08 09:16:31;;;;;;;3.65;2.40;;;26.50;58.00;;;;;;4775419;29;20117;-89
2021/06/08 09:19:02;;;;;;;4.18;1.98;;;26.50;57.50;;;;;;4794355;29;20050;-89
2021/06/08 09:21:31;;;;;;;3.63;2.70;;;26.40;57.70;;;;;;4794346;29;20043;-87
2021/06/08 09:24:16;;;;;;;2.92;1.42;;;26.50;57.70;;;;;;4774069;29;20082;-85
2021/06/08 09:26:53;;;;;;;3.58;2.70;;;26.50;58.20;;;;;;4791687;29;20046;-91
2021/06/08 09:29:34;;;;;;;6.78;3.50;;;26.60;58.00;;;;;;4807790;29;20491;-92
2021/06/08 09:32:15;;;;;;;2.85;2.08;;;26.70;58.30;;;;;;4780168;29;20038;-93
2021/06/08 09:35:00;;;;;;;2.63;1.83;;;26.60;57.40;;;;;;4786811;29;20490;-91
2021/06/08 09:37:40;;;;;;;3.65;1.85;;;26.70;57.60;;;;;;4794147;29;20931;-86
2021/06/08 09:40:27;;;;;;;3.45;1.85;;;26.70;57.50;;;;;;4793429;29;20042;-86
2021/06/08 09:43:04;;;;;;;1.88;1.42;;;27.00;57.40;;;;;;4793285;29;20038;-87
2021/06/08 09:45:46;;;;;;;2.47;1.65;;;27.10;57.10;;;;;;4802414;29;20046;-88
2021/06/08 09:48:14;;;;;;;6.55;2.80;;;27.30;56.50;;;;;;4777602;29;20046;-88
2021/06/08 09:50:42;;;;;;;1.80;1.35;;;27.30;56.00;;;;;;4770597;29;20054;-88
2021/06/08 09:53:28;;;;;;;3.47;1.85;;;27.40;56.00;;;;;;4794989;29;20047;-85
2021/06/08 09:56:02;;;;;;;2.55;1.65;;;27.40;55.60;;;;;;4807266;29;20055;-84
2021/06/08 09:58:31;;;;;;;2.78;1.50;;;27.70;55.40;;;;;;4790154;29;20059;-82
2021/06/08 10:01:20;;;;;;;2.10;1.35;;;27.80;54.80;;;;;;4792649;29;20502;-83
2021/06/08 10:03:58;;;;;;;2.47;1.95;;;28.10;55.10;;;;;;4803656;29;20054;-83
2021/06/08 10:06:39;;;;;;;3.30;1.67;;;28.30;54.10;;;;;;4788992;29;20062;-82
2021/06/08 10:09:11;;;;;;;1.93;1.03;;;28.40;53.80;;;;;;4809342;29;20070;-87
2021/06/08 10:11:39;;;;;;;2.05;1.75;;;28.50;53.50;;;;;;4791656;29;20059;-86
2021/06/08 10:14:12;;;;;;;3.00;1.90;;;28.60;53.00;;;;;;4795270;29;20526;-89
2021/06/08 10:16:39;;;;;;;2.35;1.70;;;28.60;53.30;;;;;;4776598;29;20046;-88
2021/06/08 10:19:06;;;;;;;1.48;1.30;;;28.60;52.80;;;;;;4794789;29;20406;-87
2021/06/08 10:21:40;;;;;;;1.77;1.58;;;28.70;52.90;;;;;;4790045;29;20050;-86
2021/06/08 10:24:12;;;;;;;1.98;1.45;;;28.90;52.70;;;;;;4790051;29;20035;-86
2021/06/08 10:26:44;;;;;;;2.72;2.53;;;29.00;52.10;;;;;;4805319;29;20050;-90
2021/06/08 10:29:12;;;;;;;2.72;2.53;;;28.90;51.80;;;;;;4799847;29;20042;-87
2021/06/08 10:31:41;;;;;;;2.92;2.35;;;28.80;51.60;;;;;;4804614;29;20050;-88
2021/06/08 10:34:10;;;;;;;2.55;2.08;;;28.70;51.90;;;;;;4808573;29;20062;-86
2021/06/08 10:36:38;;;;;;;1.83;1.60;;;28.60;52.10;;;;;;4773841;29;20578;-86
2021/06/08 10:39:12;;;;;;;3.10;2.80;;;28.70;51.80;;;;;;4775011;29;20059;-84
2021/06/08 10:41:41;;;;;;;4.03;2.75;;;28.80;50.90;;;;;;4775051;29;20479;-87
2021/06/08 10:44:17;;;;;;;2.65;2.10;;;28.90;51.30;;;;;;4774672;29;20047;-88
2021/06/08 10:46:50;;;;;;;2.08;1.83;;;29.00;51.50;;;;;;4792598;29;20054;-87
2021/06/08 10:49:18;;;;;;;4.13;1.67;;;29.30;50.40;;;;;;4807931;29;20050;-87
2021/06/08 10:52:04;;;;;;;4.22;3.38;;;29.60;50.10;;;;;;4762981;29;20494;-88
2021/06/08 10:54:38;;;;;;;2.53;2.20;;;29.80;48.70;;;;;;4784932;29;20042;-86
2021/06/08 10:57:12;;;;;;;2.42;1.80;;;29.80;48.80;;;;;;4790373;29;20038;-85
2021/06/08 10:59:41;;;;;;;2.58;1.88;;;29.70;49.20;;;;;;4809995;29;20046;-83
2021/06/08 11:02:09;;;;;;;2.05;1.75;;;29.70;49.80;;;;;;4791391;29;20074;-84
2021/06/08 11:04:56;;;;;;;2.45;1.83;;;30.10;49.90;;;;;;4791932;29;20485;-85
2021/06/08 11:07:53;;;;;;;2.20;1.60;;;30.70;48.40;;;;;;4804729;29;20440;-84
2021/06/08 11:10:25;;;;;;;1.80;1.48;;;31.00;47.40;;;;;;4774700;29;20062;-84
2021/06/08 11:13:08;;;;;;;2.10;1.88;;;31.20;47.00;;;;;;4808167;29;20505;-84
2021/06/08 11:15:39;;;;;;;2.53;2.28;;;31.60;46.50;;;;;;4809712;29;20124;-86
2021/06/08 11:18:25;;;;;;;3.78;3.47;;;31.70;44.80;;;;;;4792608;29;20052;-86
2021/06/08 11:20:58;;;;;;;3.85;2.50;;;31.80;45.40;;;;;;4793639;29;20050;-85
2021/06/08 11:23:42;;;;;;;3.10;1.95;;;32.10;45.90;;;;;;4806517;29;20046;-84
2021/06/08 11:26:14;;;;;;;1.80;1.13;;;32.50;44.30;;;;;;4809535;29;20491;-84
2021/06/08 11:28:43;;;;;;;2.15;1.85;;;32.80;44.10;;;;;;4790323;29;20066;-84
2021/06/08 11:31:10;;;;;;;2.08;1.67;;;33.20;42.20;;;;;;4794730;29;20054;-83
2021/06/08 11:33:45;;;;;;;2.58;2.00;;;33.10;42.30;;;;;;4780993;29;20050;-84
2021/06/08 11:36:22;;;;;;;3.08;1.83;;;33.10;42.40;;;;;;4791493;29;20513;-85
2021/06/08 11:38:50;;;;;;;3.70;1.50;;;32.70;41.90;;;;;;4807010;29;20069;-84
2021/06/08 11:41:18;;;;;;;2.22;1.30;;;32.10;42.70;;;;;;4765145;29;20050;-83
2021/06/08 11:43:46;;;;;;;1.65;1.25;;;31.90;43.10;;;;;;4795316;29;20046;-83
2021/06/08 11:46:16;;;;;;;3.75;1.70;;;31.60;43.20;;;;;;4798664;29;20042;-85
2021/06/08 11:49:03;;;;;;;2.30;1.40;;;31.40;44.20;;;;;;4802138;29;20038;-86
2021/06/08 11:51:35;;;;;;;2.78;1.60;;;31.00;44.20;;;;;;4802050;29;20046;-83
2021/06/08 11:54:08;;;;;;;2.22;1.77;;;30.90;45.20;;;;;;4805169;29;20043;-88
2021/06/08 11:56:51;;;;;;;3.28;1.67;;;31.00;43.40;;;;;;4798578;29;20051;-88
2021/06/08 11:59:23;;;;;;;2.15;1.90;;;30.80;44.10;;;;;;4799470;29;20070;-88
2021/06/08 12:01:59;;;;;;;1.83;1.58;;;30.70;43.50;;;;;;4786856;29;20068;-89
2021/06/08 12:04:28;;;;;;;2.90;2.55;;;31.00;43.90;;;;;;4782949;29;20077;-87
2021/06/08 12:06:54;;;;;;;4.57;3.60;;;31.10;44.60;;;;;;4773201;29;20042;-89
2021/06/08 12:09:25;;;;;;;3.15;2.88;;;31.70;44.40;;;;;;4809360;29;20487;-88
2021/06/08 12:11:54;;;;;;;3.13;2.80;;;32.10;43.20;;;;;;4809536;29;20410;-87
2021/06/08 12:14:25;;;;;;;5.25;2.58;;;32.50;42.80;;;;;;4793683;29;20415;-88
2021/06/08 12:16:54;;;;;;;1.70;1.53;;;33.00;42.30;;;;;;4788219;29;20038;-89
2021/06/08 12:19:34;;;;;;;3.55;2.03;;;33.10;42.00;;;;;;4774027;29;20093;-89
2021/06/08 12:22:16;;;;;;;2.55;2.35;;;32.60;41.60;;;;;;4789458;29;20045;-89
2021/06/08 12:25:00;;;;;;;2.70;2.42;;;32.10;42.80;;;;;;4776326;29;20057;-90
2021/06/08 12:27:42;;;;;;;2.58;2.17;;;32.40;42.50;;;;;;4792368;29;20038;-89
2021/06/08 12:30:11;;;;;;;2.05;1.67;;;32.70;41.50;;;;;;4777030;29;20057;-91
2021/06/08 12:32:40;;;;;;;2.72;1.48;;;32.80;41.60;;;;;;4788335;29;20063;-90
2021/06/08 12:35:40;;;;;;;2.63;2.35;;;33.00;41.10;;;;;;4791362;29;20137;-90
2021/06/08 12:38:18;;;;;;;3.17;2.70;;;33.30;41.00;;;;;;4779318;29;20159;-90
2021/06/08 12:41:03;;;;;;;2.20;1.67;;;33.60;40.70;;;;;;4792699;29;20043;-89
2021/06/08 12:43:47;;;;;;;3.05;1.95;;;34.40;39.60;;;;;;4804547;29;20042;-91
2021/06/08 12:46:23;;;;;;;1.98;1.45;;;35.00;38.60;;;;;;4773874;29;20058;-90
2021/06/08 12:49:16;;;;;;;2.17;1.50;;;35.70;38.10;;;;;;4793069;29;20047;-90
2021/06/08 12:51:52;;;;;;;2.67;1.35;;;36.50;37.70;;;;;;4813698;29;20054;-90
2021/06/08 12:54:40;;;;;;;1.50;1.25;;;37.30;36.80;;;;;;4791076;29;20045;-91
2021/06/08 12:57:12;;;;;;;1.60;1.30;;;37.40;36.10;;;;;;4781411;29;20031;-90
2021/06/08 12:59:51;;;;;;;1.65;1.27;;;36.60;36.30;;;;;;4797675;29;20054;-91
2021/06/08 13:02:19;;;;;;;1.98;1.70;;;35.50;37.10;;;;;;4809964;29;20061;-91
2021/06/08 13:04:47;;;;;;;2.42;2.08;;;34.70;37.70;;;;;;4788361;29;20065;-91
2021/06/08 13:07:21;;;;;;;2.20;1.70;;;34.20;37.60;;;;;;4781039;29;20513;-91
2021/06/08 13:09:55;;;;;;;2.47;2.20;;;34.40;38.00;;;;;;4772168;29;20047;-91